Time;durP1;ratioP1;P1;durP2;ratioP2;P2;SDS_P1;SDS_P2;PMS_P1;PMS_P2;Temp;Humidity;BMP_temperature;BMP_pressure;BME280_temperature;BME280_humidity;BME280_pressure;Samples;Min_cycle;Max_cycle;Signal;HPM_P1;HPM_P2
2021/06/09 00:00:32;;;;;;;20.48;15.50;;;18.10;68.40;17.40;102174.00;;;;5034898;28;20798;-70
2021/06/09 00:02:58;;;;;;;20.95;16.20;;;18.10;68.60;17.40;102175.00;;;;5038573;28;20048;-70
2021/06/09 00:05:24;;;;;;;19.45;16.27;;;18.10;68.70;17.40;102180.00;;;;5039017;28;20052;-70
2021/06/09 00:07:50;;;;;;;20.55;16.15;;;18.10;68.90;17.30;102169.00;;;;5038892;28;20037;-70
2021/06/09 00:10:16;;;;;;;19.33;16.33;;;18.00;70.40;17.30;102165.00;;;;5023694;28;20048;-71
2021/06/09 00:12:42;;;;;;;17.60;15.40;;;18.00;69.00;17.30;102173.00;;;;5041430;28;20048;-71
2021/06/09 00:15:13;;;;;;;17.20;14.00;;;18.00;68.80;17.20;102161.00;;;;5041124;28;20033;-70
2021/06/09 00:17:40;;;;;;;23.52;18.00;;;18.00;69.20;17.20;102163.00;;;;5022642;28;20570;-70
2021/06/09 00:20:10;;;;;;;18.42;14.25;;;17.90;69.50;17.20;102164.00;;;;5039890;28;20037;-70
2021/06/09 00:22:36;;;;;;;19.27;16.08;;;17.90;69.30;17.20;102166.00;;;;5028034;28;20160;-70
2021/06/09 00:25:09;;;;;;;21.00;16.38;;;17.90;69.80;17.20;102167.00;;;;5054801;28;20493;-70
2021/06/09 00:27:35;;;;;;;20.38;15.40;;;17.90;69.80;17.20;102171.00;;;;5040091;28;20049;-70
2021/06/09 00:30:02;;;;;;;22.55;17.20;;;17.90;70.10;17.20;102169.00;;;;5036509;28;20048;-70
2021/06/09 00:32:28;;;;;;;;;;;17.80;70.30;17.00;102165.00;;;;5038484;28;20056;-69
2021/06/09 00:34:54;;;;;;;21.77;18.40;;;17.80;71.50;17.10;102168.00;;;;5039756;28;19921;-70
2021/06/09 00:37:20;;;;;;;26.50;19.17;;;17.70;69.80;17.00;102166.00;;;;5036126;28;20075;-70
2021/06/09 00:39:45;;;;;;;24.17;18.77;;;17.70;70.30;17.00;102164.00;;;;5042548;28;20558;-70
2021/06/09 00:42:12;;;;;;;25.38;19.98;;;17.70;70.60;17.00;102160.00;;;;5039538;28;20040;-70
2021/06/09 00:44:38;;;;;;;24.52;19.55;;;17.70;70.80;17.00;102165.00;;;;5036451;28;20567;-70
2021/06/09 00:47:04;;;;;;;24.02;19.33;;;17.70;70.90;16.90;102160.00;;;;5037330;28;20052;-69
2021/06/09 00:49:30;;;;;;;21.98;17.05;;;17.60;70.80;16.90;102160.00;;;;5039582;28;20049;-70
2021/06/09 00:51:56;;;;;;;21.25;17.80;;;17.60;70.70;16.90;102164.00;;;;5038121;28;20047;-70
2021/06/09 00:54:22;;;;;;;23.92;19.08;;;17.60;70.80;16.90;102163.00;;;;5037150;28;20188;-70
2021/06/09 00:56:48;;;;;;;27.25;19.42;;;17.60;71.20;16.90;102163.00;;;;5040715;28;20049;-70
2021/06/09 00:59:14;;;;;;;20.60;16.98;;;17.60;71.40;16.90;102152.00;;;;5039819;28;20045;-70
2021/06/09 01:01:40;;;;;;;22.90;18.55;;;17.60;71.30;16.90;102157.00;;;;5021912;28;20800;-70
2021/06/09 01:04:06;;;;;;;18.58;16.58;;;17.60;71.20;16.90;102159.00;;;;5049917;28;20044;-70
2021/06/09 01:06:32;;;;;;;20.70;16.50;;;17.60;71.30;16.90;102164.00;;;;5036770;28;20102;-70
2021/06/09 01:08:58;;;;;;;23.42;18.30;;;17.50;71.40;16.90;102164.00;;;;5031408;28;20292;-70
2021/06/09 01:11:27;;;;;;;19.05;16.65;;;17.50;71.80;16.90;102162.00;;;;5042483;28;20045;-71
2021/06/09 01:13:54;;;;;;;23.20;17.70;;;17.50;71.50;16.80;102161.00;;;;5040703;28;20037;-70
2021/06/09 01:16:23;;;;;;;20.33;17.17;;;17.50;71.80;16.90;102156.00;;;;5040640;28;20049;-70
2021/06/09 01:18:49;;;;;;;20.23;17.40;;;17.50;71.90;16.90;102152.00;;;;5028490;28;20037;-71
2021/06/09 01:21:15;;;;;;;25.23;19.23;;;17.50;71.80;16.80;102154.00;;;;5039107;28;20049;-71
2021/06/09 01:23:42;;;;;;;22.05;18.80;;;17.50;72.10;16.80;102162.00;;;;5041353;28;20025;-70
2021/06/09 01:26:10;;;;;;;24.40;19.37;;;17.50;72.20;16.80;102152.00;;;;5036585;28;20103;-70
2021/06/09 01:28:37;;;;;;;21.60;18.23;;;17.50;72.30;16.80;102146.00;;;;5033903;28;20068;-71
2021/06/09 01:31:03;;;;;;;23.45;19.70;;;17.50;72.20;16.80;102154.00;;;;5037877;28;20098;-69
2021/06/09 01:33:30;;;;;;;22.23;18.98;;;17.40;72.30;16.70;102149.00;;;;5036161;28;20048;-69
2021/06/09 01:35:56;;;;;;;21.80;18.20;;;17.40;72.00;16.70;102141.00;;;;5035135;28;20051;-69
2021/06/09 01:38:23;;;;;;;21.48;17.83;;;17.40;72.60;16.70;102154.00;;;;5021631;28;20033;-69
2021/06/09 01:40:50;;;;;;;25.00;18.83;;;17.60;72.90;16.70;102141.00;;;;5019933;28;20033;-69
2021/06/09 01:43:16;;;;;;;22.52;17.83;;;17.40;72.60;16.70;102141.00;;;;5054692;28;20434;-69
2021/06/09 01:45:42;;;;;;;18.25;15.30;;;17.40;72.60;16.70;102143.00;;;;5038466;28;20060;-69
2021/06/09 01:48:10;;;;;;;27.73;19.65;;;17.40;72.60;16.70;102142.00;;;;5038134;28;20037;-69
2021/06/09 01:50:39;;;;;;;26.63;20.48;;;17.40;72.80;16.70;102138.00;;;;5033574;28;20460;-69
2021/06/09 01:53:06;;;;;;;27.15;20.92;;;17.40;73.20;16.70;102145.00;;;;5032600;28;20505;-69
2021/06/09 01:55:35;;;;;;;27.02;21.85;;;17.40;73.10;16.80;102136.00;;;;5033937;28;20783;-69
2021/06/09 01:58:02;;;;;;;25.40;20.42;;;17.40;73.40;16.80;102136.00;;;;5054246;28;20124;-70
2021/06/09 02:00:33;;;;;;;29.90;22.35;;;17.40;73.10;16.80;102140.00;;;;5019537;28;20539;-69
2021/06/09 02:03:00;;;;;;;26.88;21.27;;;17.40;73.00;16.80;102140.00;;;;5035469;28;20556;-69
2021/06/09 02:05:33;;;;;;;26.33;21.98;;;17.40;73.10;16.70;102141.00;;;;5037040;28;20657;-69
2021/06/09 02:08:06;;;;;;;30.80;22.33;;;17.40;73.20;16.70;102140.00;;;;5034086;28;20052;-69
2021/06/09 02:10:33;;;;;;;29.10;22.45;;;17.40;73.50;16.60;102145.00;;;;5034172;28;20057;-69
2021/06/09 02:13:04;;;;;;;31.65;22.35;;;17.30;73.70;16.60;102144.00;;;;5034544;28;20637;-69
2021/06/09 02:15:30;;;;;;;26.90;21.95;;;17.30;74.40;16.60;102143.00;;;;5038552;28;20056;-70
2021/06/09 02:18:08;;;;;;;22.90;17.55;;;17.30;74.30;16.60;102153.00;;;;5034657;28;20037;-70
2021/06/09 02:20:39;;;;;;;28.27;21.83;;;17.20;74.10;16.60;102150.00;;;;5026645;28;20689;-69
2021/06/09 02:23:12;;;;;;;31.88;22.33;;;17.20;74.20;16.50;102144.00;;;;5033433;28;20503;-69
2021/06/09 02:25:44;;;;;;;31.05;24.25;;;17.20;74.50;16.50;102149.00;;;;5015415;28;20122;-70
2021/06/09 02:28:10;;;;;;;32.63;24.90;;;17.20;74.10;16.50;102138.00;;;;5034633;28;20048;-69
2021/06/09 02:30:37;;;;;;;24.17;19.40;;;17.20;74.90;16.50;102140.00;;;;5033691;28;20041;-68
2021/06/09 02:33:04;;;;;;;28.52;21.13;;;17.20;74.70;16.50;102144.00;;;;5017510;28;20060;-70
2021/06/09 02:35:36;;;;;;;28.25;21.65;;;17.20;74.50;16.50;102135.00;;;;5053907;28;20036;-70
2021/06/09 02:38:04;;;;;;;31.23;24.58;;;17.20;73.90;16.50;102139.00;;;;5038591;28;20073;-70
2021/06/09 02:40:31;;;;;;;38.63;26.77;;;17.20;75.10;16.50;102137.00;;;;5038841;28;20745;-70
2021/06/09 02:42:57;;;;;;;34.90;26.77;;;17.20;75.30;16.50;102141.00;;;;5039597;28;20121;-70
2021/06/09 02:45:23;;;;;;;39.40;25.88;;;17.50;75.30;16.50;102133.00;;;;5035268;28;20052;-69
2021/06/09 02:48:01;;;;;;;32.63;24.70;;;17.20;75.30;16.40;102138.00;;;;5036401;28;20051;-70
2021/06/09 02:50:28;;;;;;;38.08;27.65;;;17.10;75.40;16.40;102134.00;;;;5037455;28;20056;-70
2021/06/09 02:53:12;;;;;;;34.17;26.65;;;17.10;75.90;16.40;102126.00;;;;5033792;28;20033;-70
2021/06/09 02:55:47;;;;;;;36.80;27.73;;;17.10;75.50;16.40;102131.00;;;;5036203;28;20080;-69
2021/06/09 02:58:33;;;;;;;35.80;28.08;;;17.10;75.40;16.30;102125.00;;;;5033143;28;20051;-69
2021/06/09 03:01:14;;;;;;;37.88;27.20;;;17.10;75.70;16.30;102135.00;;;;5034803;28;20076;-70
2021/06/09 03:04:30;;;;;;;38.55;25.40;;;17.00;75.60;16.30;102129.00;;;;5035836;28;20063;-70
2021/06/09 03:07:05;;;;;;;36.55;27.90;;;17.00;75.80;16.30;102128.00;;;;5027479;28;20049;-70
2021/06/09 03:10:15;;;;;;;39.55;29.50;;;17.00;75.70;16.20;102132.00;;;;5031981;28;20045;-70
2021/06/09 03:13:03;;;;;;;43.80;29.95;;;17.00;75.80;16.20;102137.00;;;;5029581;28;20045;-70
2021/06/09 03:16:02;;;;;;;42.53;30.00;;;16.90;75.90;16.10;102138.00;;;;5034692;28;20071;-69
2021/06/09 03:18:40;;;;;;;43.80;31.33;;;16.90;76.30;16.00;102130.00;;;;5033680;28;20060;-69
2021/06/09 03:21:30;;;;;;;38.97;29.50;;;16.80;76.30;16.00;102137.00;;;;5037360;28;20199;-69
2021/06/09 03:24:14;;;;;;;41.05;30.35;;;16.80;76.50;16.00;102143.00;;;;5035399;28;20102;-70
2021/06/09 03:26:42;;;;;;;46.80;29.63;;;16.70;76.60;16.00;102133.00;;;;5037102;28;20443;-70
2021/06/09 03:29:13;;;;;;;37.63;28.23;;;16.70;76.60;16.00;102129.00;;;;5037631;28;20044;-69
2021/06/09 03:31:48;;;;;;;36.92;27.65;;;16.70;76.70;16.00;102135.00;;;;5038179;28;20049;-70
2021/06/09 03:34:26;;;;;;;46.05;31.73;;;16.70;76.80;16.00;102130.00;;;;5033764;28;20545;-70
2021/06/09 03:36:57;;;;;;;44.47;32.90;;;16.70;76.80;15.90;102127.00;;;;5033163;28;20052;-70
2021/06/09 03:39:24;;;;;;;44.95;32.85;;;16.70;77.10;15.90;102118.00;;;;5039889;28;20519;-70
2021/06/09 03:41:57;;;;;;;46.78;33.25;;;16.60;77.20;15.90;102117.00;;;;5041514;28;20041;-70
2021/06/09 03:44:31;;;;;;;43.97;31.58;;;16.60;77.10;15.90;102118.00;;;;5034431;28;21168;-69
2021/06/09 03:46:57;;;;;;;35.05;25.33;;;16.60;77.40;15.90;102119.00;;;;5038635;28;20045;-68
2021/06/09 03:49:26;;;;;;;37.85;27.55;;;16.60;77.00;15.90;102116.00;;;;5037868;28;20081;-69
2021/06/09 03:51:53;;;;;;;41.40;30.65;;;16.60;77.00;15.90;102110.00;;;;5039399;28;20041;-71
2021/06/09 03:54:21;;;;;;;37.65;27.42;;;16.60;77.40;15.90;102111.00;;;;5035688;28;20065;-71
2021/06/09 03:56:50;;;;;;;38.92;29.55;;;16.60;77.20;16.00;102110.00;;;;5038059;28;20044;-71
2021/06/09 03:59:20;;;;;;;45.42;30.15;;;16.60;77.50;16.00;102113.00;;;;5033317;28;20428;-71
2021/06/09 04:01:47;;;;;;;38.90;29.98;;;16.60;77.50;16.00;102106.00;;;;5038653;28;20554;-72
2021/06/09 04:04:20;;;;;;;40.88;30.15;;;16.70;77.70;16.00;102117.00;;;;5040066;28;20037;-71
2021/06/09 04:06:48;;;;;;;42.25;30.75;;;16.70;77.00;16.00;102109.00;;;;5052318;28;20037;-71
2021/06/09 04:09:19;;;;;;;39.35;30.20;;;16.70;77.50;16.00;102119.00;;;;5042983;28;20067;-70
2021/06/09 04:11:50;;;;;;;36.72;28.88;;;16.70;77.60;16.10;102114.00;;;;5040103;28;20033;-71
2021/06/09 04:14:19;;;;;;;39.28;28.77;;;16.80;77.60;16.10;102122.00;;;;5030649;28;20033;-70
2021/06/09 04:16:46;;;;;;;40.88;29.38;;;16.80;77.60;16.10;102115.00;;;;5023291;28;20080;-70
2021/06/09 04:19:15;;;;;;;41.40;31.67;;;16.80;77.70;16.10;102120.00;;;;5023277;28;20119;-70
2021/06/09 04:21:41;;;;;;;38.78;28.38;;;16.80;77.60;16.20;102118.00;;;;5042023;28;20041;-71
2021/06/09 04:24:08;;;;;;;37.08;27.58;;;16.80;77.60;16.20;102112.00;;;;5031481;28;20056;-70
2021/06/09 04:26:38;;;;;;;45.58;31.30;;;16.80;77.50;16.20;102108.00;;;;5053032;28;20128;-71
2021/06/09 04:29:06;;;;;;;41.13;30.20;;;16.90;77.80;16.20;102107.00;;;;5039209;28;20033;-71
2021/06/09 04:31:34;;;;;;;41.08;29.10;;;16.90;77.80;16.30;102109.00;;;;5037094;28;20041;-70
2021/06/09 04:34:00;;;;;;;42.92;31.50;;;16.90;77.90;16.30;102102.00;;;;5038167;28;20094;-71
2021/06/09 04:36:27;;;;;;;42.72;31.08;;;17.00;77.80;16.40;102102.00;;;;5025621;28;20064;-70
2021/06/09 04:38:53;;;;;;;35.37;25.13;;;17.00;78.00;16.40;102112.00;;;;5040955;28;20047;-70
2021/06/09 04:41:20;;;;;;;39.57;29.53;;;17.00;77.90;16.50;102107.00;;;;5025012;28;20287;-70
2021/06/09 04:43:47;;;;;;;39.75;29.42;;;17.30;77.90;16.60;102108.00;;;;5048695;28;20054;-71
2021/06/09 04:46:21;;;;;;;40.05;30.17;;;17.10;77.90;16.70;102106.00;;;;5047569;28;20056;-71
2021/06/09 04:49:06;;;;;;;34.13;25.77;;;17.20;77.50;16.80;102112.00;;;;5034087;28;20049;-71
2021/06/09 04:51:35;;;;;;;36.85;26.80;;;17.30;77.50;16.90;102111.00;;;;5037628;28;20045;-71
2021/06/09 04:54:06;;;;;;;35.67;27.55;;;17.40;77.60;17.00;102109.00;;;;5045074;28;20037;-71
2021/06/09 04:56:37;;;;;;;38.58;28.55;;;17.70;77.60;17.10;102109.00;;;;5045208;28;20119;-71
2021/06/09 04:59:06;;;;;;;41.13;30.35;;;16.80;77.10;17.20;102110.00;;;;5046214;28;20053;-70
2021/06/09 05:01:36;;;;;;;42.17;31.92;;;17.70;77.70;17.30;102114.00;;;;5021686;28;20080;-71
2021/06/09 05:04:02;;;;;;;41.28;30.63;;;17.80;76.90;17.40;102113.00;;;;5039784;28;20049;-71
2021/06/09 05:06:28;;;;;;;40.90;28.77;;;17.90;77.60;17.50;102117.00;;;;5042318;28;20037;-71
2021/06/09 05:08:55;;;;;;;45.58;30.65;;;18.00;77.70;17.60;102118.00;;;;5043679;28;20380;-70
2021/06/09 05:11:34;;;;;;;41.83;31.75;;;18.00;76.50;17.70;102117.00;;;;5044344;28;20175;-72
2021/06/09 05:14:05;;;;;;;40.40;30.67;;;18.20;77.60;17.90;102115.00;;;;5040989;28;20313;-72
2021/06/09 05:16:33;;;;;;;38.58;28.63;;;18.30;77.30;18.00;102120.00;;;;5057823;28;20170;-71
2021/06/09 05:19:02;;;;;;;38.05;28.45;;;18.40;76.40;18.10;102120.00;;;;5031789;28;20090;-71
2021/06/09 05:21:33;;;;;;;40.90;31.60;;;18.50;77.10;18.20;102120.00;;;;5044984;28;20041;-71
2021/06/09 05:24:01;;;;;;;38.30;30.80;;;18.60;77.00;18.40;102134.00;;;;5040026;28;20033;-71
2021/06/09 05:26:29;;;;;;;42.70;31.90;;;18.70;76.90;18.50;102130.00;;;;5039516;28;20606;-72
2021/06/09 05:29:06;;;;;;;42.25;31.20;;;18.90;76.50;18.70;102131.00;;;;5058010;28;20723;-71
2021/06/09 05:31:38;;;;;;;43.78;31.92;;;19.00;76.70;18.90;102130.00;;;;5035211;28;20499;-71
2021/06/09 05:34:05;;;;;;;44.65;32.80;;;19.20;75.70;19.00;102132.00;;;;5034153;28;20045;-71
2021/06/09 05:36:32;;;;;;;;;;;19.40;75.50;19.10;102130.00;;;;5035355;28;20048;-71
2021/06/09 05:38:59;;;;;;;45.50;34.65;;;19.40;75.20;19.30;102128.00;;;;5042552;28;19936;-71
2021/06/09 05:41:26;;;;;;;41.08;30.77;;;19.60;75.40;19.50;102121.00;;;;5041415;28;20080;-71
2021/06/09 05:43:51;;;;;;;;;;;19.70;75.00;19.50;102129.00;;;;5044267;28;20033;-71
2021/06/09 05:46:19;;;;;;;44.03;33.50;;;19.90;75.40;19.70;102132.00;;;;5040081;28;20326;-71
2021/06/09 05:48:46;;;;;;;;;;;20.00;74.50;19.80;102133.00;;;;5041282;28;20140;-72
2021/06/09 05:51:15;;;;;;;48.08;33.35;;;20.10;74.10;20.00;102133.00;;;;5042412;28;19932;-71
2021/06/09 05:53:43;;;;;;;40.97;30.80;;;20.20;73.60;20.10;102143.00;;;;5038697;28;20051;-71
2021/06/09 05:56:10;;;;;;;44.20;33.40;;;20.30;73.20;20.20;102130.00;;;;5043622;28;20037;-72
2021/06/09 05:58:39;;;;;;;48.97;35.47;;;20.50;73.30;20.30;102134.00;;;;5041580;28;20055;-71
2021/06/09 06:01:10;;;;;;;42.53;31.70;;;20.60;73.50;20.50;102134.00;;;;5054143;28;20403;-71
2021/06/09 06:03:39;;;;;;;43.85;34.13;;;20.70;72.00;20.60;102126.00;;;;5043860;28;20049;-72
2021/06/09 06:06:09;;;;;;;47.13;34.08;;;20.80;72.60;20.70;102137.00;;;;5045441;28;20060;-71
2021/06/09 06:08:38;;;;;;;44.80;34.70;;;20.90;72.30;20.80;102133.00;;;;5042327;28;20197;-73
2021/06/09 06:11:07;;;;;;;42.40;33.42;;;21.00;71.80;20.90;102128.00;;;;5041660;28;20033;-71
2021/06/09 06:13:37;;;;;;;43.30;33.17;;;21.10;71.60;21.10;102133.00;;;;5042987;28;20112;-71
2021/06/09 06:16:04;;;;;;;47.05;35.63;;;21.30;71.40;21.20;102134.00;;;;5057941;28;20051;-72
2021/06/09 06:18:39;;;;;;;42.35;33.63;;;21.40;70.80;21.30;102145.00;;;;5042817;28;20123;-72
2021/06/09 06:21:09;;;;;;;46.10;33.08;;;21.50;70.40;21.40;102137.00;;;;5058777;28;20045;-73
2021/06/09 06:23:36;;;;;;;42.17;33.63;;;21.60;70.20;21.60;102134.00;;;;5038104;28;21569;-72
2021/06/09 06:26:03;;;;;;;42.30;33.50;;;21.70;69.70;21.70;102138.00;;;;5040495;28;20048;-72
2021/06/09 06:28:32;;;;;;;42.45;32.47;;;21.90;69.30;21.80;102141.00;;;;5038560;28;20092;-72
2021/06/09 06:30:59;;;;;;;44.63;34.33;;;21.90;69.10;21.80;102138.00;;;;5040705;28;20454;-72
2021/06/09 06:33:26;;;;;;;;;;;22.00;69.00;21.90;102135.00;;;;5044362;28;20102;-72
2021/06/09 06:35:55;;;;;;;38.30;31.30;;;22.20;67.80;22.00;102142.00;;;;5040864;28;19924;-71
2021/06/09 06:38:22;;;;;;;43.78;32.33;;;22.20;69.00;22.10;102144.00;;;;5040053;28;20041;-71
2021/06/09 06:40:49;;;;;;;42.08;32.70;;;22.30;68.00;22.20;102141.00;;;;5044102;28;20048;-69
2021/06/09 06:43:16;;;;;;;42.10;32.85;;;22.40;68.30;22.40;102137.00;;;;5040984;28;20057;-72
2021/06/09 06:45:42;;;;;;;;;;;22.50;67.70;22.40;102137.00;;;;5041896;28;20044;-71
2021/06/09 06:48:08;;;;;;;40.38;31.23;;;22.60;66.40;22.60;102138.00;;;;5040773;28;19986;-71
2021/06/09 06:50:37;;;;;;;37.90;29.55;;;22.70;67.40;22.70;102135.00;;;;5040046;28;20133;-72
2021/06/09 06:53:07;;;;;;;38.47;31.67;;;22.80;67.10;22.80;102138.00;;;;5039529;28;20554;-72
2021/06/09 06:55:34;;;;;;;39.70;32.00;;;23.00;67.30;23.00;102136.00;;;;5042313;28;20037;-72
2021/06/09 06:58:00;;;;;;;44.38;31.58;;;23.10;66.70;23.10;102147.00;;;;5043384;28;20629;-71
2021/06/09 07:00:27;;;;;;;39.95;30.65;;;23.20;66.30;23.20;102140.00;;;;5039533;28;20045;-72
2021/06/09 07:02:56;;;;;;;41.13;31.48;;;23.30;65.80;23.30;102142.00;;;;5042388;28;20096;-73
2021/06/09 07:05:26;;;;;;;37.85;30.10;;;23.50;65.70;23.40;102145.00;;;;5039810;28;20048;-72
2021/06/09 07:07:55;;;;;;;39.28;31.05;;;23.60;63.70;23.50;102142.00;;;;5041434;28;20664;-72
2021/06/09 07:10:22;;;;;;;35.58;29.17;;;23.60;64.60;23.60;102148.00;;;;5023751;28;20033;-72
2021/06/09 07:12:49;;;;;;;34.50;26.58;;;23.70;64.60;23.70;102152.00;;;;5034111;28;20055;-71
2021/06/09 07:15:19;;;;;;;42.80;30.50;;;23.80;63.50;23.80;102153.00;;;;5025016;28;20594;-72
2021/06/09 07:17:54;;;;;;;37.63;28.30;;;23.90;63.30;23.90;102154.00;;;;5040291;28;20041;-72
2021/06/09 07:20:25;;;;;;;34.90;28.90;;;24.00;62.90;24.10;102145.00;;;;5037379;28;20048;-72
2021/06/09 07:22:56;;;;;;;37.92;28.45;;;24.20;62.40;24.20;102157.00;;;;5042170;28;20075;-71
2021/06/09 07:25:25;;;;;;;36.97;29.85;;;24.40;59.90;24.40;102159.00;;;;5039887;28;20076;-72
2021/06/09 07:27:55;;;;;;;38.75;28.65;;;24.40;62.00;24.50;102156.00;;;;5043097;28;20496;-72
2021/06/09 07:30:28;;;;;;;38.53;28.63;;;24.60;61.10;24.60;102156.00;;;;5041671;28;20116;-72
2021/06/09 07:32:55;;;;;;;37.10;29.67;;;24.70;60.70;24.80;102152.00;;;;5019818;28;20042;-72
2021/06/09 07:35:20;;;;;;;38.75;31.25;;;24.80;60.60;24.90;102145.00;;;;5043667;28;20025;-72
2021/06/09 07:37:49;;;;;;;43.58;33.55;;;24.90;59.10;25.00;102148.00;;;;5044627;28;20041;-72
2021/06/09 07:40:27;;;;;;;44.10;35.13;;;25.10;60.60;25.10;102156.00;;;;5041052;28;20062;-72
2021/06/09 07:43:00;;;;;;;39.90;33.15;;;25.20;60.30;25.30;102152.00;;;;5040419;28;20094;-72
2021/06/09 07:45:27;;;;;;;42.97;33.47;;;25.40;60.00;25.40;102157.00;;;;5042472;28;20041;-73
2021/06/09 07:47:56;;;;;;;41.95;31.65;;;25.40;59.50;25.50;102156.00;;;;5040981;28;20466;-73
2021/06/09 07:50:31;;;;;;;39.85;32.95;;;25.50;59.80;25.50;102156.00;;;;5022883;28;20037;-72
2021/06/09 07:53:06;;;;;;;40.28;31.45;;;25.70;58.80;25.30;102159.00;;;;5036949;28;20128;-72
2021/06/09 07:55:37;;;;;;;44.38;33.83;;;25.50;58.50;25.40;102176.00;;;;5041240;28;20033;-72
2021/06/09 07:58:05;;;;;;;44.35;36.20;;;25.50;58.50;25.40;102175.00;;;;5039295;28;20360;-71
2021/06/09 08:00:33;;;;;;;43.95;34.58;;;25.60;58.40;25.40;102172.00;;;;5041420;28;20044;-71
2021/06/09 08:02:59;;;;;;;43.40;32.22;;;25.50;55.60;25.20;102179.00;;;;5024526;28;20037;-71
2021/06/09 08:05:27;;;;;;;44.20;35.78;;;25.40;57.90;25.20;102173.00;;;;5041939;28;20747;-72
2021/06/09 08:07:54;;;;;;;41.22;33.08;;;25.50;58.00;25.30;102169.00;;;;5031807;28;20102;-72
2021/06/09 08:10:21;;;;;;;46.83;36.47;;;25.50;56.50;25.30;102179.00;;;;5039752;28;20652;-72
2021/06/09 08:12:56;;;;;;;39.78;33.35;;;25.50;57.10;25.20;102170.00;;;;5036644;28;20038;-72
2021/06/09 08:15:23;;;;;;;43.47;32.65;;;25.50;57.10;25.20;102173.00;;;;5040906;28;20045;-72
2021/06/09 08:17:49;;;;;;;37.78;32.08;;;25.40;57.20;25.40;102167.00;;;;5043434;28;20041;-72
2021/06/09 08:20:18;;;;;;;;;;;25.50;57.40;25.40;102169.00;;;;5052035;28;21103;-72
2021/06/09 08:22:45;;;;;;;38.22;31.00;;;25.60;54.50;25.60;102173.00;;;;5028451;28;19986;-73
2021/06/09 08:25:14;;;;;;;38.00;31.73;;;25.70;57.60;25.70;102169.00;;;;5025153;28;20102;-73
2021/06/09 08:27:41;;;;;;;36.40;30.85;;;25.80;56.90;25.70;102178.00;;;;5026453;28;20044;-72
2021/06/09 08:30:08;;;;;;;35.03;29.98;;;25.90;56.00;25.90;102179.00;;;;5045939;28;20041;-73
2021/06/09 08:32:36;;;;;;;35.97;29.17;;;25.90;55.40;26.00;102171.00;;;;5043775;28;20087;-73
2021/06/09 08:35:04;;;;;;;39.60;29.88;;;26.10;55.20;26.20;102175.00;;;;5043055;28;20114;-73
2021/06/09 08:37:30;;;;;;;39.15;28.38;;;26.20;52.20;26.30;102170.00;;;;5045322;28;20047;-73
2021/06/09 08:39:56;;;;;;;29.95;22.45;;;26.40;54.70;26.40;102172.00;;;;5044515;28;20037;-73
2021/06/09 08:42:26;;;;;;;28.02;23.13;;;26.50;53.90;26.60;102173.00;;;;5045396;28;20571;-72
2021/06/09 08:44:52;;;;;;;28.40;23.73;;;26.60;53.40;26.70;102170.00;;;;5025178;28;20033;-72
2021/06/09 08:47:21;;;;;;;27.75;20.83;;;26.70;53.40;26.80;102170.00;;;;5028224;28;20089;-73
2021/06/09 08:49:48;;;;;;;25.17;21.23;;;26.80;52.80;26.90;102173.00;;;;5038461;28;20037;-72
2021/06/09 08:52:14;;;;;;;;;;;26.90;52.40;26.90;102174.00;;;;5045911;28;20080;-72
2021/06/09 08:54:47;;;;;;;25.70;20.20;;;27.00;48.20;26.90;102170.00;;;;5047868;28;19921;-73
2021/06/09 08:57:15;;;;;;;28.90;23.42;;;27.00;51.70;27.10;102183.00;;;;5042610;28;20199;-73
2021/06/09 08:59:44;;;;;;;23.38;20.20;;;27.10;51.50;27.10;102179.00;;;;5035779;28;20041;-72
2021/06/09 09:02:12;;;;;;;24.65;21.42;;;27.20;51.30;27.10;102175.00;;;;5046936;28;20194;-72
2021/06/09 09:04:40;;;;;;;24.70;21.15;;;27.20;51.10;27.20;102177.00;;;;5043120;28;20037;-72
2021/06/09 09:07:11;;;;;;;23.77;20.73;;;27.30;50.60;27.30;102179.00;;;;5046356;28;20595;-73
2021/06/09 09:09:38;;;;;;;21.20;17.65;;;27.30;50.40;27.30;102184.00;;;;5029693;28;20047;-73
2021/06/09 09:12:06;;;;;;;19.40;17.13;;;27.40;50.20;27.40;102185.00;;;;5042551;28;20106;-73
2021/06/09 09:14:33;;;;;;;23.60;20.13;;;27.50;49.80;27.50;102183.00;;;;5043538;28;20737;-73
2021/06/09 09:17:11;;;;;;;24.40;20.90;;;27.70;48.70;27.60;102186.00;;;;5044143;28;20048;-73
2021/06/09 09:19:44;;;;;;;30.20;20.92;;;27.70;49.20;27.70;102192.00;;;;5023694;28;20045;-73
2021/06/09 09:22:17;;;;;;;29.55;24.88;;;27.80;48.80;27.80;102194.00;;;;5045923;28;20140;-72
2021/06/09 09:24:50;;;;;;;26.02;22.50;;;27.90;48.90;27.80;102185.00;;;;5046446;28;20156;-73
2021/06/09 09:27:28;;;;;;;32.15;25.80;;;27.90;48.80;28.00;102187.00;;;;5042339;28;20573;-73
2021/06/09 09:30:09;;;;;;;28.40;24.55;;;28.10;48.80;28.00;102182.00;;;;5040362;28;20040;-73
2021/06/09 09:32:37;;;;;;;25.30;22.58;;;28.10;47.00;28.00;102181.00;;;;5026844;28;20675;-72
2021/06/09 09:35:13;;;;;;;24.10;20.48;;;28.20;48.80;28.10;102183.00;;;;5055725;28;20033;-72
2021/06/09 09:37:39;;;;;;;26.42;21.35;;;28.20;46.30;28.10;102191.00;;;;5043683;28;20057;-74
2021/06/09 09:40:13;;;;;;;24.20;21.08;;;28.20;48.00;28.20;102189.00;;;;5057308;28;20148;-73
2021/06/09 09:42:39;;;;;;;24.13;20.90;;;28.30;47.50;28.20;102185.00;;;;5046381;28;20509;-73
2021/06/09 09:45:28;;;;;;;31.15;21.02;;;28.30;47.40;28.10;102192.00;;;;5044652;28;20059;-73
2021/06/09 09:48:04;;;;;;;23.85;21.23;;;28.30;47.10;27.90;102185.00;;;;5010971;28;20041;-72
2021/06/09 09:50:49;;;;;;;24.17;20.27;;;28.00;45.60;27.80;102199.00;;;;5045993;28;20045;-72
2021/06/09 09:53:23;;;;;;;21.92;18.75;;;28.10;47.00;28.00;102197.00;;;;5058219;28;20143;-72
2021/06/09 09:56:04;;;;;;;20.88;17.88;;;28.20;46.80;28.20;102191.00;;;;5045842;28;20045;-73
2021/06/09 09:58:50;;;;;;;20.65;16.60;;;28.30;46.30;28.30;102188.00;;;;5041768;28;20131;-73
2021/06/09 10:01:23;;;;;;;21.70;16.42;;;28.40;46.10;28.40;102193.00;;;;5045279;28;20052;-72
2021/06/09 10:03:53;;;;;;;19.95;16.23;;;28.50;45.50;28.50;102193.00;;;;5044735;28;20091;-73
2021/06/09 10:06:38;;;;;;;18.95;15.95;;;28.60;45.00;28.50;102188.00;;;;5041120;28;20044;-73
2021/06/09 10:09:25;;;;;;;21.85;17.90;;;28.60;44.80;28.50;102194.00;;;;5046164;28;20063;-73
2021/06/09 10:11:58;;;;;;;20.55;16.15;;;28.70;44.90;28.60;102187.00;;;;5042934;28;20071;-72
2021/06/09 10:14:44;;;;;;;22.80;16.88;;;28.70;44.70;28.80;102189.00;;;;5039958;28;21581;-72
2021/06/09 10:17:23;;;;;;;17.75;15.00;;;28.90;44.10;28.90;102192.00;;;;5044896;28;20114;-72
2021/06/09 10:20:00;;;;;;;18.02;16.05;;;29.00;45.00;29.00;102191.00;;;;5043116;28;20048;-73
2021/06/09 10:22:32;;;;;;;18.85;15.85;;;29.20;43.90;29.00;102190.00;;;;5025700;28;20052;-72
2021/06/09 10:24:59;;;;;;;22.58;19.67;;;29.20;43.90;28.90;102180.00;;;;5041996;28;20037;-72
2021/06/09 10:27:51;;;;;;;17.95;15.35;;;29.10;43.60;28.80;102189.00;;;;5045048;28;20094;-72
2021/06/09 10:30:20;;;;;;;15.35;13.60;;;29.10;42.30;29.00;102183.00;;;;5045399;28;20044;-74
2021/06/09 10:32:58;;;;;;;14.07;10.43;;;29.20;43.20;28.90;102174.00;;;;5042459;28;20044;-74
2021/06/09 10:35:38;;;;;;;13.15;10.95;;;29.30;40.60;29.00;102179.00;;;;5045021;28;20059;-74
2021/06/09 10:38:04;;;;;;;20.45;16.38;;;29.20;39.20;29.00;102178.00;;;;5024622;28;20041;-74
2021/06/09 10:40:32;;;;;;;17.67;14.93;;;29.20;42.10;28.60;102174.00;;;;5054962;28;20045;-73
2021/06/09 10:43:01;;;;;;;16.15;14.43;;;28.90;42.30;28.30;102181.00;;;;5043059;28;20044;-74
2021/06/09 10:45:29;;;;;;;17.52;14.60;;;28.70;42.20;28.00;102178.00;;;;5039872;28;20045;-73
2021/06/09 10:47:57;;;;;;;18.60;15.35;;;28.50;41.90;27.50;102170.00;;;;5026773;28;20064;-74